Time;durP1;ratioP1;P1;durP2;ratioP2;P2;SDS_P1;SDS_P2;PMS_P1;PMS_P2;Temp;Humidity;BMP_temperature;BMP_pressure;BME280_temperature;BME280_humidity;BME280_pressure;Samples;Min_cycle;Max_cycle;Signal;HPM_P1;HPM_P2
2022/08/01 00:01:17;;;;;;;2.55;1.63;;;;;;;;;;10198057;28;20050;-60
2022/08/01 00:06:16;;;;;;;2.85;1.40;;;;;;;;;;10198473;28;20104;-60
2022/08/01 00:11:14;;;;;;;4.43;1.70;;;;;;;;;;10197935;28;20061;-60
2022/08/01 00:16:12;;;;;;;4.60;1.85;;;;;;;;;;10197330;28;20074;-60
2022/08/01 00:21:12;;;;;;;1.23;1.13;;;;;;;;;;10197109;28;20082;-59
2022/08/01 00:26:10;;;;;;;1.92;1.50;;;;;;;;;;10197553;28;20074;-59
2022/08/01 00:31:09;;;;;;;1.77;1.42;;;;;;;;;;10196558;28;20050;-60
2022/08/01 00:36:07;;;;;;;2.72;1.52;;;;;;;;;;10196792;28;20108;-60
2022/08/01 00:41:07;;;;;;;1.33;1.23;;;;;;;;;;10196694;28;20046;-59
2022/08/01 00:46:05;;;;;;;2.17;1.63;;;;;;;;;;10195201;28;20177;-59
2022/08/01 00:51:04;;;;;;;3.75;1.52;;;;;;;;;;10196315;28;20042;-59
2022/08/01 00:56:03;;;;;;;6.30;1.42;;;;;;;;;;10195399;28;20049;-60
2022/08/01 01:01:02;;;;;;;2.83;1.35;;;;;;;;;;10195315;28;20074;-59
2022/08/01 01:06:08;;;;;;;6.20;1.80;;;;;;;;;;10195953;28;20526;-60
2022/08/01 01:11:11;;;;;;;3.58;1.50;;;;;;;;;;10195797;28;20280;-59
2022/08/01 01:16:12;;;;;;;1.60;1.50;;;;;;;;;;10195136;28;20077;-59
2022/08/01 01:21:15;;;;;;;1.42;1.08;;;;;;;;;;10193222;28;20049;-60
2022/08/01 01:26:29;;;;;;;3.67;1.27;;;;;;;;;;10195212;28;20078;-60
2022/08/01 01:31:30;;;;;;;8.07;1.27;;;;;;;;;;10193627;28;20062;-60
2022/08/01 01:36:29;;;;;;;2.95;1.33;;;;;;;;;;10195403;28;20089;-59
2022/08/01 01:41:28;;;;;;;2.08;1.48;;;;;;;;;;10194306;28;20046;-60
2022/08/01 01:46:28;;;;;;;2.67;1.15;;;;;;;;;;10194018;28;20472;-60
2022/08/01 01:51:29;;;;;;;4.03;1.30;;;;;;;;;;10194292;28;20065;-60
2022/08/01 01:56:28;;;;;;;3.88;1.20;;;;;;;;;;10192661;28;20052;-60
2022/08/01 02:01:29;;;;;;;4.25;1.35;;;;;;;;;;10194041;28;20049;-60
2022/08/01 02:06:51;;;;;;;2.33;1.73;;;;;;;;;;10192159;28;20058;-59
2022/08/01 02:11:50;;;;;;;1.67;1.58;;;;;;;;;;10193037;28;20049;-59
2022/08/01 02:17:05;;;;;;;3.35;1.55;;;;;;;;;;10193928;28;20042;-60
2022/08/01 02:22:06;;;;;;;4.35;1.50;;;;;;;;;;10192834;28;20089;-60
2022/08/01 02:27:07;;;;;;;3.30;1.42;;;;;;;;;;10192232;28;20077;-59
2022/08/01 02:32:07;;;;;;;4.05;1.73;;;;;;;;;;10193643;28;20058;-59
2022/08/01 02:37:07;;;;;;;6.53;1.70;;;;;;;;;;10197350;28;20061;-60
2022/08/01 02:42:07;;;;;;;8.88;2.20;;;;;;;;;;10201718;28;20142;-60
2022/08/01 02:47:06;;;;;;;4.18;1.70;;;;;;;;;;10201160;28;20074;-60
2022/08/01 02:52:06;;;;;;;3.78;1.70;;;;;;;;;;10199772;28;20077;-60
2022/08/01 02:57:07;;;;;;;3.10;1.60;;;;;;;;;;10201175;28;20074;-60
2022/08/01 03:02:10;;;;;;;4.65;1.75;;;;;;;;;;10200150;28;20088;-60
2022/08/01 03:07:11;;;;;;;11.50;2.70;;;;;;;;;;10200287;28;20088;-60
2022/08/01 03:12:12;;;;;;;2.97;1.83;;;;;;;;;;10199963;28;20049;-60
2022/08/01 03:17:11;;;;;;;2.42;1.65;;;;;;;;;;10199460;28;20053;-60
2022/08/01 03:22:12;;;;;;;2.95;2.25;;;;;;;;;;10200082;28;20061;-59
2022/08/01 03:27:12;;;;;;;1.60;1.50;;;;;;;;;;10199706;28;20082;-60
2022/08/01 03:32:12;;;;;;;3.53;2.00;;;;;;;;;;10198856;28;20077;-60
2022/08/01 03:37:12;;;;;;;3.88;1.88;;;;;;;;;;10199155;28;20385;-59
2022/08/01 03:42:15;;;;;;;4.20;2.35;;;;;;;;;;10199089;28;20038;-60
2022/08/01 03:47:14;;;;;;;6.47;2.13;;;;;;;;;;10197062;28;20100;-60
2022/08/01 03:52:13;;;;;;;5.43;1.90;;;;;;;;;;10198190;28;20088;-58
2022/08/01 03:57:13;;;;;;;2.47;1.60;;;;;;;;;;10194649;28;20089;-60
2022/08/01 04:02:31;;;;;;;3.80;2.15;;;;;;;;;;10156761;28;20527;-60
2022/08/01 04:07:31;;;;;;;3.50;1.83;;;;;;;;;;10157140;28;20090;-59
2022/08/01 04:12:31;;;;;;;4.63;1.90;;;;;;;;;;10156809;28;20054;-60
2022/08/01 04:17:30;;;;;;;3.45;2.60;;;;;;;;;;10156645;28;20078;-61
2022/08/01 04:22:30;;;;;;;6.35;2.60;;;;;;;;;;10155067;28;20504;-60
2022/08/01 04:27:33;;;;;;;4.53;1.90;;;;;;;;;;10155863;28;20097;-60
2022/08/01 04:32:49;;;;;;;4.30;3.10;;;;;;;;;;10155734;28;20112;-59
2022/08/01 04:37:50;;;;;;;2.50;2.30;;;;;;;;;;10158238;28;20413;-60
2022/08/01 04:42:50;;;;;;;6.32;2.28;;;;;;;;;;10175001;28;20066;-59
2022/08/01 04:47:50;;;;;;;2.25;2.05;;;;;;;;;;10191883;28;20088;-60
2022/08/01 04:52:48;;;;;;;2.47;2.22;;;;;;;;;;10187018;28;20080;-60
2022/08/01 04:57:47;;;;;;;9.52;2.70;;;;;;;;;;10153882;28;20086;-59
2022/08/01 05:02:47;;;;;;;3.13;2.33;;;;;;;;;;10151023;28;20066;-58
2022/08/01 05:07:45;;;;;;;3.20;2.65;;;;;;;;;;10150839;28;20082;-59
2022/08/01 05:12:43;;;;;;;3.65;2.47;;;;;;;;;;10149899;28;20089;-59
2022/08/01 05:17:42;;;;;;;3.42;2.85;;;;;;;;;;10154567;28;20099;-59
2022/08/01 05:22:42;;;;;;;6.28;3.15;;;;;;;;;;10169231;28;20080;-59
2022/08/01 05:27:40;;;;;;;7.18;3.47;;;;;;;;;;10193617;28;20088;-58
2022/08/01 05:32:39;;;;;;;5.72;2.60;;;;;;;;;;10168269;28;20069;-59
2022/08/01 05:37:37;;;;;;;4.43;2.17;;;;;;;;;;10162454;28;20102;-60
2022/08/01 05:42:37;;;;;;;3.55;2.38;;;;;;;;;;10157851;28;20070;-59
2022/08/01 05:47:36;;;;;;;7.28;2.10;;;;;;;;;;10160749;28;20117;-59
2022/08/01 05:52:40;;;;;;;2.42;1.77;;;;;;;;;;10163895;28;20077;-62
2022/08/01 05:57:39;;;;;;;5.00;1.98;;;;;;;;;;10160131;28;20462;-60
2022/08/01 06:02:40;;;;;;;5.72;2.08;;;;;;;;;;10164431;28;20070;-60
2022/08/01 06:07:39;;;;;;;2.75;1.80;;;;;;;;;;10169299;28;20074;-60
2022/08/01 06:12:37;;;;;;;7.03;1.80;;;;;;;;;;10175873;28;20076;-59
2022/08/01 06:17:38;;;;;;;3.65;1.90;;;;;;;;;;10162058;28;20747;-60
2022/08/01 06:22:37;;;;;;;9.13;2.45;;;;;;;;;;10169125;28;20542;-62
2022/08/01 06:27:35;;;;;;;2.75;1.85;;;;;;;;;;10182692;28;20069;-59
2022/08/01 06:32:33;;;;;;;9.50;3.55;;;;;;;;;;10182835;28;20073;-59
2022/08/01 06:37:33;;;;;;;5.38;2.92;;;;;;;;;;10176732;28;20058;-59
2022/08/01 06:42:35;;;;;;;2.42;1.83;;;;;;;;;;10187141;28;20084;-60
2022/08/01 06:47:33;;;;;;;3.20;2.47;;;;;;;;;;10157949;28;20375;-60
2022/08/01 06:52:33;;;;;;;2.50;2.13;;;;;;;;;;10157963;28;20089;-61
2022/08/01 06:57:32;;;;;;;4.85;1.77;;;;;;;;;;10157610;28;20077;-60
2022/08/01 07:02:30;;;;;;;6.50;1.90;;;;;;;;;;10159336;28;20081;-60
2022/08/01 07:07:29;;;;;;;5.75;1.67;;;;;;;;;;10156747;28;20080;-59
2022/08/01 07:12:29;;;;;;;5.85;2.30;;;;;;;;;;10156096;28;20077;-58
2022/08/01 07:17:27;;;;;;;2.20;1.98;;;;;;;;;;10155255;28;20097;-59
2022/08/01 07:22:25;;;;;;;4.13;2.70;;;;;;;;;;10159622;28;20093;-59
2022/08/01 07:27:24;;;;;;;2.80;2.60;;;;;;;;;;10159235;28;20542;-59
2022/08/01 07:32:24;;;;;;;4.75;3.55;;;;;;;;;;10158485;28;20077;-59
2022/08/01 07:37:23;;;;;;;3.55;2.78;;;;;;;;;;10158956;28;20412;-58
2022/08/01 07:42:46;;;;;;;3.42;2.90;;;;;;;;;;10158407;28;20449;-61
2022/08/01 07:47:50;;;;;;;4.95;3.10;;;;;;;;;;10158661;28;20069;-59
2022/08/01 07:52:48;;;;;;;8.85;4.50;;;;;;;;;;10158477;28;20043;-60
2022/08/01 07:57:46;;;;;;;6.40;4.65;;;;;;;;;;10157746;28;20416;-60
2022/08/01 08:02:45;;;;;;;6.68;5.60;;;;;;;;;;10158051;28;20079;-59
2022/08/01 08:07:44;;;;;;;8.50;4.80;;;;;;;;;;10157385;28;20078;-59
2022/08/01 08:12:43;;;;;;;5.90;5.40;;;;;;;;;;10157654;28;20081;-59
2022/08/01 08:17:41;;;;;;;6.63;5.88;;;;;;;;;;10157579;28;20085;-59
2022/08/01 08:22:48;;;;;;;5.72;4.85;;;;;;;;;;10155975;28;20050;-58
2022/08/01 08:27:47;;;;;;;5.28;4.82;;;;;;;;;;10156533;28;20096;-59
2022/08/01 08:32:45;;;;;;;7.28;5.13;;;;;;;;;;10155856;28;20101;-60
2022/08/01 08:37:43;;;;;;;6.75;5.80;;;;;;;;;;10156536;28;20054;-60
2022/08/01 08:42:48;;;;;;;6.38;4.32;;;;;;;;;;10156493;28;20078;-59
2022/08/01 08:47:48;;;;;;;5.15;3.90;;;;;;;;;;10155839;28;20073;-59
2022/08/01 08:52:47;;;;;;;5.13;4.10;;;;;;;;;;10155840;28;20077;-60
2022/08/01 08:57:47;;;;;;;5.90;4.38;;;;;;;;;;10155545;28;20054;-60
2022/08/01 09:02:48;;;;;;;7.30;4.43;;;;;;;;;;10156076;28;20054;-59
2022/08/01 09:07:47;;;;;;;5.80;3.47;;;;;;;;;;10155916;28;20093;-60
2022/08/01 09:13:00;;;;;;;7.65;3.75;;;;;;;;;;10155019;28;20046;-60
2022/08/01 09:17:59;;;;;;;5.20;3.30;;;;;;;;;;10155043;28;20072;-59
2022/08/01 09:22:58;;;;;;;2.92;2.30;;;;;;;;;;10155186;28;20084;-60
2022/08/01 09:28:03;;;;;;;4.97;3.38;;;;;;;;;;10154013;28;20104;-60
2022/08/01 09:33:04;;;;;;;4.63;3.00;;;;;;;;;;10154595;28;20082;-60
2022/08/01 09:38:19;;;;;;;4.07;2.60;;;;;;;;;;10154314;28;20088;-59
2022/08/01 09:43:17;;;;;;;7.75;2.30;;;;;;;;;;10154181;28;20046;-60
2022/08/01 09:48:17;;;;;;;2.55;2.35;;;;;;;;;;10152877;28;20086;-60
2022/08/01 09:53:16;;;;;;;2.97;2.67;;;;;;;;;;10153811;28;20085;-60
2022/08/01 09:58:27;;;;;;;4.07;3.15;;;;;;;;;;10153299;28;20049;-59
2022/08/01 10:03:29;;;;;;;3.90;2.60;;;;;;;;;;10153997;28;20074;-60
2022/08/01 10:08:27;;;;;;;6.88;3.95;;;;;;;;;;10153474;28;20297;-60
2022/08/01 10:13:26;;;;;;;4.40;3.63;;;;;;;;;;10153641;28;20539;-60
2022/08/01 10:18:36;;;;;;;4.32;3.72;;;;;;;;;;10152831;28;20081;-59
2022/08/01 10:23:36;;;;;;;7.35;4.15;;;;;;;;;;10153336;28;20050;-59
2022/08/01 10:28:39;;;;;;;5.82;2.63;;;;;;;;;;10153112;28;20086;-59
2022/08/01 10:33:41;;;;;;;6.05;3.50;;;;;;;;;;10153232;28;20157;-60
2022/08/01 10:38:50;;;;;;;6.03;4.28;;;;;;;;;;10153036;28;20042;-59
2022/08/01 10:43:48;;;;;;;6.32;4.20;;;;;;;;;;10152972;28;20092;-59
2022/08/01 10:48:53;;;;;;;8.40;5.13;;;;;;;;;;10152386;28;20093;-60
2022/08/01 10:53:52;;;;;;;7.47;4.75;;;;;;;;;;10152886;28;20090;-59
2022/08/01 10:58:56;;;;;;;4.82;4.40;;;;;;;;;;10157790;28;20077;-59
2022/08/01 11:04:01;;;;;;;7.22;4.05;;;;;;;;;;10160783;28;20042;-59
2022/08/01 11:09:02;;;;;;;7.78;4.57;;;;;;;;;;10160428;28;20077;-59
2022/08/01 11:14:06;;;;;;;4.00;3.63;;;;;;;;;;10159412;28;20050;-60
2022/08/01 11:19:08;;;;;;;7.88;4.18;;;;;;;;;;10160120;28;20066;-59
2022/08/01 11:24:13;;;;;;;6.47;4.10;;;;;;;;;;10159833;28;20084;-58
2022/08/01 11:29:18;;;;;;;6.97;3.63;;;;;;;;;;10158484;28;20113;-59
2022/08/01 11:34:21;;;;;;;3.53;3.23;;;;;;;;;;10159530;28;20404;-59
2022/08/01 11:39:20;;;;;;;5.13;3.83;;;;;;;;;;10158302;28;20512;-59
2022/08/01 11:44:19;;;;;;;2.53;2.25;;;;;;;;;;10159120;28;20042;-59
2022/08/01 11:49:28;;;;;;;3.05;2.83;;;;;;;;;;10158360;28;20081;-59
2022/08/01 11:54:27;;;;;;;4.68;2.90;;;;;;;;;;10158779;28;20050;-59
2022/08/01 11:59:40;;;;;;;2.63;2.20;;;;;;;;;;10158874;28;20047;-60
2022/08/01 12:05:00;;;;;;;2.13;1.92;;;;;;;;;;10157620;28;20080;-58
2022/08/01 12:10:01;;;;;;;2.25;2.00;;;;;;;;;;10156776;28;20084;-59
2022/08/01 12:15:00;;;;;;;2.08;1.88;;;;;;;;;;10158252;28;20050;-59
2022/08/01 12:20:00;;;;;;;2.35;1.42;;;;;;;;;;10156153;28;20512;-60
2022/08/01 12:25:06;;;;;;;2.33;1.42;;;;;;;;;;10157610;28;20069;-60
2022/08/01 12:30:06;;;;;;;4.13;1.88;;;;;;;;;;10158024;28;20488;-60
2022/08/01 12:35:06;;;;;;;3.55;1.80;;;;;;;;;;10156532;28;20080;-59
2022/08/01 12:40:12;;;;;;;2.75;1.77;;;;;;;;;;10156828;28;20084;-60
2022/08/01 12:45:13;;;;;;;2.78;1.75;;;;;;;;;;10155533;28;20058;-60
2022/08/01 12:50:14;;;;;;;3.00;2.28;;;;;;;;;;10156639;28;20081;-61
2022/08/01 12:55:17;;;;;;;2.83;2.33;;;;;;;;;;10156587;28;20049;-59
2022/08/01 13:00:17;;;;;;;6.90;2.38;;;;;;;;;;10156091;28;20081;-60
2022/08/01 13:05:17;;;;;;;2.60;2.00;;;;;;;;;;10156094;28;20051;-60
2022/08/01 13:10:16;;;;;;;2.33;2.10;;;;;;;;;;10155702;28;20077;-60
2022/08/01 13:15:21;;;;;;;1.98;1.70;;;;;;;;;;10154717;28;20057;-60
2022/08/01 13:20:25;;;;;;;8.35;1.60;;;;;;;;;;10153884;28;20084;-60
2022/08/01 13:25:24;;;;;;;3.00;1.90;;;;;;;;;;10155075;28;20046;-59
2022/08/01 13:30:25;;;;;;;6.22;2.80;;;;;;;;;;10155060;28;20078;-60
2022/08/01 13:35:23;;;;;;;4.38;2.45;;;;;;;;;;10155504;28;20057;-60
2022/08/01 13:40:26;;;;;;;6.25;2.55;;;;;;;;;;10155075;28;20089;-60
2022/08/01 13:45:25;;;;;;;7.07;2.90;;;;;;;;;;10154506;28;20082;-60
2022/08/01 13:50:23;;;;;;;2.90;2.10;;;;;;;;;;10153198;28;20546;-60
2022/08/01 13:55:22;;;;;;;2.05;1.90;;;;;;;;;;10154164;28;20053;-60
2022/08/01 14:00:22;;;;;;;3.83;2.13;;;;;;;;;;10153600;28;20077;-60
2022/08/01 14:05:20;;;;;;;11.45;1.88;;;;;;;;;;10154293;28;20046;-60
2022/08/01 14:10:19;;;;;;;10.13;2.80;;;;;;;;;;10153933;28;20086;-60
2022/08/01 14:15:18;;;;;;;4.03;2.95;;;;;;;;;;10154639;28;20070;-60
2022/08/01 14:20:38;;;;;;;5.53;4.50;;;;;;;;;;10153325;28;20055;-61
2022/08/01 14:25:37;;;;;;;5.57;3.45;;;;;;;;;;10152432;28;20539;-60
2022/08/01 14:30:56;;;;;;;5.05;2.97;;;;;;;;;;10154612;28;20125;-60
2022/08/01 14:35:56;;;;;;;5.40;2.85;;;;;;;;;;10161925;28;20046;-60
2022/08/01 14:41:04;;;;;;;4.88;4.43;;;;;;;;;;10162093;28;20042;-59
2022/08/01 14:46:03;;;;;;;6.18;1.83;;;;;;;;;;10162007;28;20054;-60
2022/08/01 14:51:03;;;;;;;4.00;2.22;;;;;;;;;;10161724;28;20083;-60
2022/08/01 14:56:02;;;;;;;3.63;2.80;;;;;;;;;;10160403;28;20062;-59
2022/08/01 15:01:00;;;;;;;3.47;3.10;;;;;;;;;;10161136;28;20046;-60
2022/08/01 15:05:59;;;;;;;2.40;1.77;;;;;;;;;;10161687;28;20046;-60
2022/08/01 15:11:00;;;;;;;4.03;2.17;;;;;;;;;;10160062;28;20077;-60
2022/08/01 15:15:59;;;;;;;2.72;1.92;;;;;;;;;;10160673;28;20088;-60
2022/08/01 15:20:58;;;;;;;2.38;2.17;;;;;;;;;;10159755;28;20539;-60
2022/08/01 15:25:56;;;;;;;2.40;2.20;;;;;;;;;;10159571;28;20096;-59
2022/08/01 15:30:56;;;;;;;4.40;2.13;;;;;;;;;;10159238;28;20086;-59
2022/08/01 15:35:54;;;;;;;5.30;2.85;;;;;;;;;;10159874;28;20412;-59
2022/08/01 15:40:54;;;;;;;4.53;3.05;;;;;;;;;;10158918;28;20042;-60
2022/08/01 15:45:52;;;;;;;5.80;3.25;;;;;;;;;;10159090;28;20424;-60
2022/08/01 15:50:52;;;;;;;9.00;4.43;;;;;;;;;;10159174;28;20085;-60
2022/08/01 15:55:51;;;;;;;5.90;4.07;;;;;;;;;;10159257;28;20051;-59
2022/08/01 16:00:49;;;;;;;4.05;2.50;;;;;;;;;;10158999;28;20487;-59
2022/08/01 16:05:49;;;;;;;6.47;4.15;;;;;;;;;;10159294;28;20073;-59
2022/08/01 16:10:49;;;;;;;5.35;4.32;;;;;;;;;;10158593;28;20074;-60
2022/08/01 16:15:47;;;;;;;2.90;2.65;;;;;;;;;;10158411;28;20053;-58
2022/08/01 16:20:45;;;;;;;3.22;2.40;;;;;;;;;;10157697;28;20046;-60
2022/08/01 16:25:44;;;;;;;7.80;3.47;;;;;;;;;;10158276;28;20085;-60
2022/08/01 16:30:44;;;;;;;2.90;2.10;;;;;;;;;;10156413;28;20078;-60
2022/08/01 16:36:02;;;;;;;2.92;2.50;;;;;;;;;;10158023;28;20045;-60
2022/08/01 16:41:01;;;;;;;4.68;2.28;;;;;;;;;;10157630;28;20622;-60
2022/08/01 16:46:00;;;;;;;4.38;2.30;;;;;;;;;;10157733;28;20189;-60
2022/08/01 16:50:59;;;;;;;6.15;2.60;;;;;;;;;;10155676;28;20046;-60
2022/08/01 16:55:57;;;;;;;2.92;2.63;;;;;;;;;;10156538;28;20073;-60
2022/08/01 17:00:56;;;;;;;5.10;2.20;;;;;;;;;;10156567;28;20523;-61
2022/08/01 17:06:16;;;;;;;10.13;2.40;;;;;;;;;;10156753;28;20065;-61
2022/08/01 17:11:15;;;;;;;2.65;2.45;;;;;;;;;;10156164;28;20088;-60
2022/08/01 17:16:13;;;;;;;7.68;2.55;;;;;;;;;;10156032;28;20126;-60
2022/08/01 17:21:11;;;;;;;8.63;3.10;;;;;;;;;;10154602;28;20502;-61
2022/08/01 17:26:11;;;;;;;3.35;2.92;;;;;;;;;;10156204;28;20408;-60
2022/08/01 17:31:10;;;;;;;2.65;2.45;;;;;;;;;;10155714;28;20046;-59
2022/08/01 17:36:08;;;;;;;3.60;3.00;;;;;;;;;;10155733;28;20401;-61
2022/08/01 17:41:06;;;;;;;6.32;2.33;;;;;;;;;;10155735;28;20511;-60
2022/08/01 17:46:06;;;;;;;6.45;3.15;;;;;;;;;;10155027;28;20065;-59
2022/08/01 17:51:05;;;;;;;7.63;3.03;;;;;;;;;;10154547;28;20082;-59
2022/08/01 17:56:04;;;;;;;4.13;3.53;;;;;;;;;;10154414;28;20074;-59
2022/08/01 18:01:03;;;;;;;4.65;2.65;;;;;;;;;;10154349;28;20526;-59
2022/08/01 18:06:03;;;;;;;2.95;2.65;;;;;;;;;;10152892;28;20186;-60
2022/08/01 18:11:01;;;;;;;3.72;2.88;;;;;;;;;;10154341;28;20470;-60
2022/08/01 18:15:59;;;;;;;13.07;3.10;;;;;;;;;;10153970;28;20081;-60
2022/08/01 18:20:58;;;;;;;5.22;2.85;;;;;;;;;;10152950;28;20057;-62
2022/08/01 18:26:00;;;;;;;4.45;2.70;;;;;;;;;;10151406;28;20046;-60
2022/08/01 18:31:01;;;;;;;5.70;2.80;;;;;;;;;;10154132;28;20053;-60
2022/08/01 18:35:59;;;;;;;5.07;3.13;;;;;;;;;;10153065;28;20042;-60
2022/08/01 18:41:04;;;;;;;6.65;3.70;;;;;;;;;;10153499;28;20523;-60
2022/08/01 18:46:04;;;;;;;5.18;3.17;;;;;;;;;;10153368;28;20097;-60
2022/08/01 18:51:02;;;;;;;3.10;2.53;;;;;;;;;;10151676;28;20195;-60
2022/08/01 18:56:10;;;;;;;3.83;3.38;;;;;;;;;;10153628;28;20051;-60
2022/08/01 19:01:08;;;;;;;;;;;;;;;;;;10151913;28;20522;-60
2022/08/01 19:06:08;;;;;;;3.72;3.28;;;;;;;;;;10153564;28;19975;-60
2022/08/01 19:11:08;;;;;;;4.00;2.85;;;;;;;;;;10153217;28;20511;-60
2022/08/01 19:16:06;;;;;;;5.03;3.30;;;;;;;;;;10158297;28;20081;-60
2022/08/01 19:21:05;;;;;;;4.22;3.83;;;;;;;;;;10193854;28;20542;-60
2022/08/01 19:26:11;;;;;;;5.00;3.17;;;;;;;;;;10189962;28;20533;-60
2022/08/01 19:31:11;;;;;;;5.18;3.65;;;;;;;;;;10179777;28;20061;-60
2022/08/01 19:36:18;;;;;;;4.47;4.07;;;;;;;;;;10177950;28;20042;-60
2022/08/01 19:41:16;;;;;;;3.55;3.20;;;;;;;;;;10175425;28;20046;-60
2022/08/01 19:46:16;;;;;;;4.13;3.28;;;;;;;;;;10175551;28;20061;-59
2022/08/01 19:51:16;;;;;;;5.00;3.53;;;;;;;;;;10177141;28;20093;-60
2022/08/01 19:56:15;;;;;;;3.60;3.30;;;;;;;;;;10171356;28;20073;-60
2022/08/01 20:01:14;;;;;;;5.28;2.88;;;;;;;;;;10168189;28;20138;-60
2022/08/01 20:06:14;;;;;;;3.55;3.10;;;;;;;;;;10159276;28;20460;-60
2022/08/01 20:11:12;;;;;;;5.35;2.92;;;;;;;;;;10158870;28;20038;-60
2022/08/01 20:16:15;;;;;;;3.67;3.15;;;;;;;;;;10171587;28;20050;-61
2022/08/01 20:21:15;;;;;;;4.43;3.05;;;;;;;;;;10177880;28;20073;-61
2022/08/01 20:26:14;;;;;;;6.28;4.03;;;;;;;;;;10152050;28;20453;-60
2022/08/01 20:31:13;;;;;;;3.10;2.85;;;;;;;;;;10158807;28;20078;-59
2022/08/01 20:36:12;;;;;;;5.50;2.83;;;;;;;;;;10156998;28;20088;-61
2022/08/01 20:41:24;;;;;;;4.70;3.35;;;;;;;;;;10156194;28;20042;-58
2022/08/01 20:46:23;;;;;;;3.58;3.28;;;;;;;;;;10156946;28;20050;-61
2022/08/01 20:51:24;;;;;;;3.10;2.80;;;;;;;;;;10157180;28;20095;-60
2022/08/01 20:56:29;;;;;;;3.20;2.90;;;;;;;;;;10156269;28;20080;-60
2022/08/01 21:01:29;;;;;;;3.83;3.30;;;;;;;;;;10155561;28;20053;-60
2022/08/01 21:06:37;;;;;;;3.70;3.35;;;;;;;;;;10156584;28;20054;-60
2022/08/01 21:11:42;;;;;;;3.60;3.30;;;;;;;;;;10154766;28;20042;-60
2022/08/01 21:16:46;;;;;;;5.13;3.30;;;;;;;;;;10155027;28;20527;-61
2022/08/01 21:21:50;;;;;;;5.40;4.20;;;;;;;;;;10153845;28;20492;-60
2022/08/01 21:26:51;;;;;;;3.47;3.17;;;;;;;;;;10167594;28;20038;-60
2022/08/01 21:32:10;;;;;;;4.97;3.03;;;;;;;;;;10194851;28;20045;-60
2022/08/01 21:37:09;;;;;;;2.90;2.70;;;;;;;;;;10195013;28;20045;-61
2022/08/01 21:42:10;;;;;;;3.95;3.00;;;;;;;;;;10193857;28;20038;-60
2022/08/01 21:47:15;;;;;;;3.58;2.80;;;;;;;;;;10194619;28;20092;-60
2022/08/01 21:52:17;;;;;;;5.03;3.53;;;;;;;;;;10194485;28;20452;-60
2022/08/01 21:57:25;;;;;;;5.63;3.83;;;;;;;;;;10193848;28;20504;-60
2022/08/01 22:02:25;;;;;;;6.55;4.20;;;;;;;;;;10193992;28;20045;-60
2022/08/01 22:07:25;;;;;;;5.18;3.92;;;;;;;;;;10193477;28;20042;-60
2022/08/01 22:12:25;;;;;;;5.05;4.30;;;;;;;;;;10193482;28;20050;-60
2022/08/01 22:17:31;;;;;;;4.55;3.45;;;;;;;;;;10193614;28;20056;-60
2022/08/01 22:22:30;;;;;;;6.30;3.42;;;;;;;;;;10192950;28;20054;-60
2022/08/01 22:27:49;;;;;;;6.90;3.92;;;;;;;;;;10193063;28;20050;-60
2022/08/01 22:33:07;;;;;;;6.57;3.80;;;;;;;;;;10193267;28;20208;-59
2022/08/01 22:38:16;;;;;;;5.78;3.90;;;;;;;;;;10193581;28;20045;-60
2022/08/01 22:43:18;;;;;;;4.05;3.33;;;;;;;;;;10193754;28;20054;-60
2022/08/01 22:48:18;;;;;;;5.38;3.42;;;;;;;;;;10193746;28;20056;-61
2022/08/01 22:53:21;;;;;;;4.18;3.35;;;;;;;;;;10195341;28;20058;-61
2022/08/01 22:58:22;;;;;;;5.32;4.13;;;;;;;;;;10201288;28;20141;-60
2022/08/01 23:03:24;;;;;;;4.43;4.03;;;;;;;;;;10200259;28;20057;-60
2022/08/01 23:08:23;;;;;;;4.78;3.35;;;;;;;;;;10200440;28;20084;-60
2022/08/01 23:13:23;;;;;;;3.88;3.47;;;;;;;;;;10199756;28;20081;-60
2022/08/01 23:18:22;;;;;;;3.65;3.28;;;;;;;;;;10199526;28;20057;-60
2022/08/01 23:23:21;;;;;;;3.58;3.28;;;;;;;;;;10199388;28;20071;-60
2022/08/01 23:28:30;;;;;;;3.05;2.83;;;;;;;;;;10199394;28;20507;-60
2022/08/01 23:33:28;;;;;;;7.82;3.70;;;;;;;;;;10198407;28;20080;-60
2022/08/01 23:38:26;;;;;;;3.08;2.78;;;;;;;;;;10199520;28;20042;-60
2022/08/01 23:43:25;;;;;;;3.25;2.95;;;;;;;;;;10198897;28;20074;-61
2022/08/01 23:48:24;;;;;;;3.20;2.65;;;;;;;;;;10198766;28;20080;-65
2022/08/01 23:53:23;;;;;;;4.10;2.80;;;;;;;;;;10198449;28;20380;-61
2022/08/01 23:58:27;;;;;;;5.90;2.97;;;;;;;;;;10198055;28;20077;-61
